Time;durP1;ratioP1;P1;durP2;ratioP2;P2;SDS_P1;SDS_P2;PMS_P1;PMS_P2;Temp;Humidity;BMP_temperature;BMP_pressure;BME280_temperature;BME280_humidity;BME280_pressure;Samples;Min_cycle;Max_cycle;Signal;HPM_P1;HPM_P2
2022/12/13 00:01:00;;;;;;;0.97;0.97;;;;;;;-144.99;100.00;67352.69;5050520;28;20210;-80
2022/12/13 00:03:25;;;;;;;0.57;0.57;;;;;;;-144.99;100.00;67352.69;5032327;28;20232;-80
2022/12/13 00:05:50;;;;;;;0.93;0.93;;;;;;;-144.99;100.00;67352.69;5050409;28;20182;-80
2022/12/13 00:08:16;;;;;;;1.53;1.53;;;;;;;-144.99;100.00;67352.69;5050453;28;20213;-81
2022/12/13 00:10:41;;;;;;;1.53;1.43;;;;;;;-144.99;100.00;67352.69;5050737;28;20298;-79
2022/12/13 00:13:06;;;;;;;0.87;0.87;;;;;;;-144.99;100.00;67352.69;5050279;28;20777;-79
2022/12/13 00:15:32;;;;;;;2.40;2.23;;;;;;;-144.99;100.00;67352.69;5032973;28;20205;-80
2022/12/13 00:17:57;;;;;;;0.50;0.50;;;;;;;-144.99;100.00;67352.69;5051962;28;20187;-80
2022/12/13 00:20:22;;;;;;;0.70;0.70;;;;;;;-144.99;100.00;67352.69;5058448;28;20195;-80
2022/12/13 00:22:50;;;;;;;2.73;2.63;;;;;;;-144.99;100.00;67352.69;5050969;28;20240;-80
2022/12/13 00:25:18;;;;;;;6.43;0.83;;;;;;;-144.99;100.00;67352.69;5050487;28;20236;-79
2022/12/13 00:27:43;;;;;;;1.63;1.23;;;;;;;-144.99;100.00;67352.69;5050770;28;20513;-80
2022/12/13 00:30:09;;;;;;;0.00;0.00;;;;;;;-144.99;100.00;67352.69;5051362;28;20501;-80
2022/12/13 00:32:34;;;;;;;3.27;3.20;;;;;;;-144.99;100.00;67352.69;5050693;28;20638;-79
2022/12/13 00:34:59;;;;;;;0.00;0.00;;;;;;;-144.99;100.00;67352.69;5050629;28;20533;-80
2022/12/13 00:37:25;;;;;;;1.03;1.03;;;;;;;-144.99;100.00;67352.69;5050471;28;20229;-80
2022/12/13 00:39:50;;;;;;;0.83;0.83;;;;;;;-144.99;100.00;67352.69;5032472;28;20598;-80
2022/12/13 00:42:16;;;;;;;2.83;1.10;;;;;;;-144.99;100.00;67352.69;5050408;28;20183;-82
2022/12/13 00:44:41;;;;;;;4.27;0.77;;;;;;;-144.99;100.00;67352.69;5050005;28;20171;-80
2022/12/13 00:47:06;;;;;;;0.00;0.00;;;;;;;-144.99;100.00;67352.69;5050405;28;20179;-80
2022/12/13 00:49:31;;;;;;;0.00;0.00;;;;;;;-144.99;100.00;67352.69;5050157;28;20253;-80
2022/12/13 00:51:57;;;;;;;2.60;2.43;;;;;;;-144.99;100.00;67352.69;5050035;28;20175;-79
2022/12/13 00:54:22;;;;;;;1.40;0.57;;;;;;;-144.99;100.00;67352.69;5050016;28;20221;-81
2022/12/13 00:56:50;;;;;;;1.07;1.07;;;;;;;-144.99;100.00;67352.69;5050070;28;20653;-80
2022/12/13 00:59:15;;;;;;;2.37;2.27;;;;;;;-144.99;100.00;67352.69;5049786;28;20179;-79
2022/12/13 01:01:40;;;;;;;0.10;0.10;;;;;;;-144.99;100.00;67352.69;5050028;28;20414;-80
2022/12/13 01:04:06;;;;;;;1.80;1.70;;;;;;;-144.99;100.00;67352.69;5049748;28;20542;-80
2022/12/13 01:06:37;;;;;;;4.90;2.77;;;;;;;-144.99;100.00;67352.69;5049850;28;20236;-79
2022/12/13 01:09:05;;;;;;;3.70;3.40;;;;;;;-144.99;100.00;67352.69;5050075;28;20419;-79
2022/12/13 01:11:30;;;;;;;2.07;1.73;;;;;;;-144.99;100.00;67352.69;5053287;28;20421;-80
2022/12/13 01:13:55;;;;;;;0.00;0.00;;;;;;;-144.99;100.00;67352.69;5053368;28;20414;-79
2022/12/13 01:16:20;;;;;;;0.10;0.10;;;;;;;-144.99;100.00;67352.69;5053685;28;20182;-80
2022/12/13 01:18:46;;;;;;;0.50;0.50;;;;;;;-144.99;100.00;67352.69;5053244;28;20186;-80
2022/12/13 01:21:17;;;;;;;0.10;0.10;;;;;;;-144.99;100.00;67352.69;5035347;28;20684;-79
2022/12/13 01:23:43;;;;;;;1.10;1.10;;;;;;;-144.99;100.00;67352.69;5053385;28;20171;-80
2022/12/13 01:26:17;;;;;;;3.20;1.03;;;;;;;-144.99;100.00;67352.69;5053120;28;20410;-80
2022/12/13 01:28:43;;;;;;;1.80;1.70;;;;;;;-144.99;100.00;67352.69;5053039;28;20406;-79
2022/12/13 01:31:14;;;;;;;0.30;0.30;;;;;;;-144.99;100.00;67352.69;5053249;28;20913;-80
2022/12/13 01:33:40;;;;;;;0.00;0.00;;;;;;;-144.99;100.00;67352.69;5052994;28;20167;-80
2022/12/13 01:36:09;;;;;;;2.20;2.20;;;;;;;-144.99;100.00;67352.69;5052776;28;20763;-80
2022/12/13 01:38:35;;;;;;;0.73;0.73;;;;;;;-144.99;100.00;67352.69;5052732;28;20219;-80
2022/12/13 01:41:01;;;;;;;0.73;0.73;;;;;;;-144.99;100.00;67352.69;5052815;28;20558;-80
2022/12/13 01:43:51;;;;;;;0.00;0.00;;;;;;;-144.99;100.00;67352.69;5052578;28;20530;-80
2022/12/13 01:46:17;;;;;;;0.00;0.00;;;;;;;-144.99;100.00;67352.69;5052908;28;20183;-81
2022/12/13 01:48:49;;;;;;;0.10;0.10;;;;;;;-144.99;100.00;67352.69;5052586;28;20421;-79
2022/12/13 01:51:19;;;;;;;1.60;1.50;;;;;;;-144.99;100.00;67352.69;5052598;28;20921;-80
2022/12/13 01:53:47;;;;;;;1.03;1.03;;;;;;;-144.99;100.00;67352.69;5052561;28;20426;-82
2022/12/13 01:56:36;;;;;;;3.70;3.50;;;;;;;-144.99;100.00;67352.69;5052991;28;20441;-82
2022/12/13 01:59:04;;;;;;;0.00;0.00;;;;;;;-144.99;100.00;67352.69;5052913;28;20410;-80
2022/12/13 02:01:30;;;;;;;0.00;0.00;;;;;;;-144.99;100.00;67352.69;5052621;28;20468;-80
2022/12/13 02:03:55;;;;;;;0.43;0.43;;;;;;;-144.99;100.00;67352.69;5052140;28;20454;-82
2022/12/13 02:06:39;;;;;;;2.27;2.20;;;;;;;-144.99;100.00;67352.69;5052302;28;20175;-80
2022/12/13 02:09:05;;;;;;;0.47;0.47;;;;;;;-144.99;100.00;67352.69;5034363;28;20236;-80
2022/12/13 02:11:34;;;;;;;0.00;0.00;;;;;;;-144.99;100.00;67352.69;5052361;28;20422;-80
2022/12/13 02:13:59;;;;;;;9.70;9.03;;;;;;;-144.99;100.00;67352.69;5051948;28;20418;-80
2022/12/13 02:16:36;;;;;;;0.00;0.00;;;;;;;-144.99;100.00;67352.69;5051943;28;20541;-80
2022/12/13 02:19:35;;;;;;;0.40;0.40;;;;;;;-144.99;100.00;67352.69;5052088;28;20566;-80
2022/12/13 02:22:20;;;;;;;0.93;0.93;;;;;;;-144.99;100.00;67352.69;5050769;28;20421;-80
2022/12/13 02:25:15;;;;;;;1.10;1.10;;;;;;;-144.99;100.00;67352.69;5033740;28;20462;-81
2022/12/13 02:28:07;;;;;;;0.00;0.00;;;;;;;-144.99;100.00;67352.69;5033608;28;20430;-80
2022/12/13 02:30:43;;;;;;;0.00;0.00;;;;;;;-144.99;100.00;67352.69;5052148;28;20452;-80
2022/12/13 02:33:18;;;;;;;0.00;0.00;;;;;;;-144.99;100.00;67352.69;5051602;28;20429;-80
2022/12/13 02:35:52;;;;;;;0.03;0.03;;;;;;;-144.99;100.00;67352.69;5051603;28;20504;-80
2022/12/13 02:38:22;;;;;;;0.67;0.67;;;;;;;-144.99;100.00;67352.69;5051642;28;20587;-80
2022/12/13 02:40:59;;;;;;;2.13;2.13;;;;;;;-144.99;100.00;67352.69;5051443;28;21003;-80
2022/12/13 02:43:42;;;;;;;0.00;0.00;;;;;;;-144.99;100.00;67352.69;5051667;28;20831;-81
2022/12/13 02:46:10;;;;;;;0.33;0.33;;;;;;;-144.99;100.00;67352.69;5051692;28;20402;-79
2022/12/13 02:48:40;;;;;;;0.00;0.00;;;;;;;-144.99;100.00;67352.69;5051192;28;20978;-80
2022/12/13 02:51:10;;;;;;;3.33;3.03;;;;;;;-144.99;100.00;67352.69;5051348;28;20885;-79
2022/12/13 02:53:38;;;;;;;0.00;0.00;;;;;;;-144.99;100.00;67352.69;5033227;28;20513;-79
2022/12/13 02:56:04;;;;;;;0.00;0.00;;;;;;;-144.99;100.00;67352.69;5051340;28;20414;-80
2022/12/13 02:58:33;;;;;;;0.13;0.13;;;;;;;-144.99;100.00;67352.69;5051469;28;20455;-80
2022/12/13 03:01:20;;;;;;;0.00;0.00;;;;;;;-144.99;100.00;67352.69;5051884;28;20210;-80
2022/12/13 03:04:22;;;;;;;0.00;0.00;;;;;;;-144.99;100.00;67352.69;5051032;28;20430;-80
2022/12/13 03:07:02;;;;;;;0.37;0.37;;;;;;;-144.99;100.00;67352.69;5051081;28;20414;-80
2022/12/13 03:09:46;;;;;;;2.73;1.83;;;;;;;-144.99;100.00;67352.69;5051143;28;20421;-80
2022/12/13 03:15:39;;;;;;;3.50;2.80;;;;;;;-144.99;100.00;67352.69;5051511;28;20710;-81
2022/12/13 03:18:18;;;;;;;1.20;1.20;;;;;;;-144.99;100.00;67352.69;5051175;28;20418;-80
2022/12/13 03:20:49;;;;;;;1.83;1.73;;;;;;;-144.99;100.00;67352.69;5050898;28;20837;-80
2022/12/13 03:23:19;;;;;;;1.90;1.80;;;;;;;-144.99;100.00;67352.69;5051215;28;20413;-82
2022/12/13 03:25:48;;;;;;;1.80;1.80;;;;;;;-144.99;100.00;67352.69;5050808;28;20475;-81
2022/12/13 03:28:14;;;;;;;1.10;1.10;;;;;;;-144.99;100.00;67352.69;5050565;28;20421;-80
2022/12/13 03:30:39;;;;;;;0.37;0.37;;;;;;;-144.99;100.00;67352.69;5050858;28;20463;-80
2022/12/13 03:33:05;;;;;;;1.93;1.90;;;;;;;-144.99;100.00;67352.69;5050261;28;20558;-80
2022/12/13 03:35:31;;;;;;;0.63;0.63;;;;;;;-144.99;100.00;67352.69;5050689;28;20167;-80
2022/12/13 03:37:57;;;;;;;2.40;2.27;;;;;;;-144.99;100.00;67352.69;5050678;28;20324;-82
2022/12/13 03:40:22;;;;;;;1.03;1.03;;;;;;;-144.99;100.00;67352.69;5050523;28;20972;-82
2022/12/13 03:42:48;;;;;;;1.00;0.97;;;;;;;-144.99;100.00;67352.69;5050575;28;20214;-80
2022/12/13 03:45:13;;;;;;;2.30;2.20;;;;;;;-144.99;100.00;67352.69;5033129;28;20531;-80
2022/12/13 03:47:38;;;;;;;0.73;0.73;;;;;;;-144.99;100.00;67352.69;5033244;28;20178;-81
2022/12/13 03:50:04;;;;;;;1.77;1.57;;;;;;;-144.99;100.00;67352.69;5050956;28;20206;-80
2022/12/13 03:52:30;;;;;;;0.10;0.10;;;;;;;-144.99;100.00;67352.69;5051081;28;20171;-81
2022/12/13 03:54:56;;;;;;;0.00;0.00;;;;;;;-144.99;100.00;67352.69;5050630;28;20430;-80
2022/12/13 03:57:21;;;;;;;1.80;1.70;;;;;;;-144.99;100.00;67352.69;5050679;28;20187;-80
2022/12/13 03:59:46;;;;;;;0.67;0.67;;;;;;;-144.99;100.00;67352.69;5050771;28;20206;-82
2022/12/13 04:02:11;;;;;;;0.40;0.40;;;;;;;-144.99;100.00;67352.69;5050579;28;20228;-81
2022/12/13 04:04:37;;;;;;;1.27;0.93;;;;;;;-144.99;100.00;67352.69;5032446;28;20183;-80
2022/12/13 04:07:02;;;;;;;0.50;0.50;;;;;;;-144.99;100.00;67352.69;5050861;28;20185;-80
2022/12/13 04:09:27;;;;;;;0.20;0.20;;;;;;;-144.99;100.00;67352.69;5032772;28;20684;-80
2022/12/13 04:14:38;;;;;;;1.90;1.80;;;;;;;-144.99;100.00;67352.69;5029025;28;20755;-81
2022/12/13 04:17:04;;;;;;;1.83;1.73;;;;;;;-144.99;100.00;67352.69;5050646;28;20451;-80
2022/12/13 04:19:29;;;;;;;5.50;2.27;;;;;;;-144.99;100.00;67352.69;5032505;28;20412;-82
2022/12/13 04:21:54;;;;;;;1.70;1.70;;;;;;;-144.99;100.00;67352.69;5050738;28;20219;-82
2022/12/13 04:24:21;;;;;;;0.00;0.00;;;;;;;-144.99;100.00;67352.69;5050283;28;20189;-82
2022/12/13 04:26:46;;;;;;;1.33;1.33;;;;;;;-144.99;100.00;67352.69;5050399;28;20186;-81
2022/12/13 04:29:12;;;;;;;0.47;0.47;;;;;;;-144.99;100.00;67352.69;5050145;28;20418;-80
2022/12/13 04:31:37;;;;;;;1.80;1.80;;;;;;;-144.99;100.00;67352.69;5049845;28;20179;-80
2022/12/13 04:34:03;;;;;;;0.90;0.83;;;;;;;-144.99;100.00;67352.69;5049636;28;20172;-82
2022/12/13 04:36:28;;;;;;;0.00;0.00;;;;;;;-144.99;100.00;67352.69;5049947;28;20179;-80
2022/12/13 04:38:54;;;;;;;0.17;0.17;;;;;;;-144.99;100.00;67352.69;5049390;28;20217;-80
2022/12/13 04:41:19;;;;;;;1.00;0.57;;;;;;;-144.99;100.00;67352.69;5049785;28;20214;-81
2022/12/13 04:43:51;;;;;;;1.07;1.07;;;;;;;-144.99;100.00;67352.69;5031594;28;20194;-80
2022/12/13 04:46:20;;;;;;;2.03;1.83;;;;;;;-144.99;100.00;67352.69;5053628;28;20579;-80
2022/12/13 04:48:46;;;;;;;0.10;0.10;;;;;;;-144.99;100.00;67352.69;5053885;28;20913;-80
2022/12/13 04:51:12;;;;;;;0.00;0.00;;;;;;;-144.99;100.00;67352.69;5053527;28;20447;-81
2022/12/13 04:53:37;;;;;;;0.73;0.73;;;;;;;-144.99;100.00;67352.69;5053211;28;20450;-80
2022/12/13 04:56:03;;;;;;;0.00;0.00;;;;;;;-144.99;100.00;67352.69;5053340;28;20186;-80
2022/12/13 04:58:29;;;;;;;0.47;0.47;;;;;;;-144.99;100.00;67352.69;5053286;28;20175;-80
2022/12/13 05:00:55;;;;;;;0.10;0.10;;;;;;;-144.99;100.00;67352.69;5053639;28;20523;-81
2022/12/13 05:03:21;;;;;;;0.77;0.77;;;;;;;-144.99;100.00;67352.69;5053282;28;20909;-81
2022/12/13 05:05:46;;;;;;;0.60;0.60;;;;;;;-144.99;100.00;67352.69;5035478;28;20184;-81
2022/12/13 05:08:12;;;;;;;0.10;0.10;;;;;;;-144.99;100.00;67352.69;5053152;28;20418;-81
2022/12/13 05:10:37;;;;;;;0.87;0.87;;;;;;;-144.99;100.00;67352.69;5053086;28;20185;-81
2022/12/13 05:13:03;;;;;;;1.13;1.13;;;;;;;-144.99;100.00;67352.69;5053014;28;20609;-81
2022/12/13 05:15:29;;;;;;;0.00;0.00;;;;;;;-144.99;100.00;67352.69;5053181;28;20186;-80
2022/12/13 05:17:58;;;;;;;0.30;0.30;;;;;;;-144.99;100.00;67352.69;5053243;28;20897;-81
2022/12/13 05:20:24;;;;;;;1.57;1.50;;;;;;;-144.99;100.00;67352.69;5052985;28;20230;-80
2022/12/13 05:22:50;;;;;;;5.50;2.87;;;;;;;-144.99;100.00;67352.69;5052780;28;20532;-80
2022/12/13 05:25:15;;;;;;;0.10;0.10;;;;;;;-144.99;100.00;67352.69;5052895;28;20580;-80
2022/12/13 05:27:41;;;;;;;3.23;2.67;;;;;;;-144.99;100.00;67352.69;5052687;28;20182;-81
2022/12/13 05:30:07;;;;;;;0.20;0.20;;;;;;;-144.99;100.00;67352.69;5035047;28;20175;-82
2022/12/13 05:32:37;;;;;;;11.60;1.87;;;;;;;-144.99;100.00;67352.69;5052532;28;20175;-82
2022/12/13 05:35:03;;;;;;;1.07;1.00;;;;;;;-144.99;100.00;67352.69;5052772;28;20181;-82
2022/12/13 05:37:28;;;;;;;1.50;1.40;;;;;;;-144.99;100.00;67352.69;5052311;28;20426;-82
2022/12/13 05:39:53;;;;;;;4.87;4.47;;;;;;;-144.99;100.00;67352.69;5034750;28;20372;-80
2022/12/13 05:42:19;;;;;;;0.90;0.77;;;;;;;-144.99;100.00;67352.69;5034723;28;20179;-81
2022/12/13 05:44:44;;;;;;;1.60;1.10;;;;;;;-144.99;100.00;67352.69;5034577;28;20745;-84
2022/12/13 05:47:09;;;;;;;0.17;0.17;;;;;;;-144.99;100.00;67352.69;5034563;28;20179;-81
2022/12/13 05:49:34;;;;;;;0.00;0.00;;;;;;;-144.99;100.00;67352.69;5034755;28;20662;-81
2022/12/13 05:52:00;;;;;;;0.10;0.10;;;;;;;-144.99;100.00;67352.69;5052350;28;20224;-81
2022/12/13 05:54:25;;;;;;;0.10;0.10;;;;;;;-144.99;100.00;67352.69;5052307;28;20178;-81
2022/12/13 05:56:50;;;;;;;0.10;0.10;;;;;;;-144.99;100.00;67352.69;5052096;28;20195;-81
2022/12/13 05:59:16;;;;;;;0.00;0.00;;;;;;;-144.99;100.00;67352.69;5052242;28;20550;-81
2022/12/13 06:01:41;;;;;;;0.10;0.10;;;;;;;-144.99;100.00;67352.69;5052393;28;20177;-81
2022/12/13 06:04:06;;;;;;;0.27;0.27;;;;;;;-144.99;100.00;67352.69;5051851;28;20546;-81
2022/12/13 06:06:31;;;;;;;0.67;0.60;;;;;;;-144.99;100.00;67352.69;5034015;28;20179;-81
2022/12/13 06:08:58;;;;;;;3.77;3.40;;;;;;;-144.99;100.00;67352.69;5052204;28;20171;-81
2022/12/13 06:11:23;;;;;;;0.67;0.67;;;;;;;-144.99;100.00;67352.69;5034127;28;20183;-81
2022/12/13 06:13:51;;;;;;;0.00;0.00;;;;;;;-144.99;100.00;67352.69;5051835;28;20424;-81
2022/12/13 06:16:16;;;;;;;0.37;0.37;;;;;;;-144.99;100.00;67352.69;5033979;28;20187;-80
2022/12/13 06:18:42;;;;;;;0.90;0.90;;;;;;;-144.99;100.00;67352.69;5052035;28;20417;-81
2022/12/13 06:21:07;;;;;;;0.20;0.20;;;;;;;-144.99;100.00;67352.69;5051741;28;20416;-81
2022/12/13 06:23:34;;;;;;;0.00;0.00;;;;;;;-144.99;100.00;67352.69;5051846;28;20176;-81
2022/12/13 06:26:04;;;;;;;1.70;1.60;;;;;;;-144.99;100.00;67352.69;5051845;28;20175;-80
2022/12/13 06:28:30;;;;;;;5.40;2.07;;;;;;;-144.99;100.00;67352.69;5051748;28;20900;-81
2022/12/13 06:30:58;;;;;;;0.40;0.40;;;;;;;-144.99;100.00;67352.69;5051761;28;20418;-80
2022/12/13 06:33:24;;;;;;;0.20;0.20;;;;;;;-144.99;100.00;67352.69;5051361;28;20274;-81
2022/12/13 06:35:51;;;;;;;0.00;0.00;;;;;;;-144.99;100.00;67352.69;5051419;28;20512;-81
2022/12/13 06:38:16;;;;;;;0.10;0.10;;;;;;;-144.99;100.00;67352.69;5051117;28;20183;-81
2022/12/13 06:40:42;;;;;;;0.83;0.83;;;;;;;-144.99;100.00;67352.69;5051386;28;20465;-81
2022/12/13 06:43:07;;;;;;;0.00;0.00;;;;;;;-144.99;100.00;67352.69;5033358;28;20638;-81
2022/12/13 06:45:32;;;;;;;0.00;0.00;;;;;;;-144.99;100.00;67352.69;5033523;28;20241;-81
2022/12/13 06:47:58;;;;;;;0.60;0.60;;;;;;;-144.99;100.00;67352.69;5033402;28;20195;-81
2022/12/13 06:50:23;;;;;;;0.33;0.33;;;;;;;-144.99;100.00;67352.69;5033329;28;20175;-81
2022/12/13 06:52:48;;;;;;;3.53;1.33;;;;;;;-144.99;100.00;67352.69;5051347;28;20245;-81
2022/12/13 06:55:14;;;;;;;0.00;0.00;;;;;;;-144.99;100.00;67352.69;5050868;28;20203;-81
2022/12/13 06:57:39;;;;;;;0.00;0.00;;;;;;;-144.99;100.00;67352.69;5051157;28;20783;-81
2022/12/13 07:00:05;;;;;;;0.00;0.00;;;;;;;-144.99;100.00;67352.69;5051173;28;20198;-81
2022/12/13 07:02:31;;;;;;;0.00;0.00;;;;;;;-144.99;100.00;67352.69;5050966;28;20216;-80
2022/12/13 07:04:56;;;;;;;0.00;0.00;;;;;;;-144.99;100.00;67352.69;5050584;28;20948;-81
2022/12/13 07:07:23;;;;;;;0.00;0.00;;;;;;;-144.99;100.00;67352.69;5050465;28;20175;-81
2022/12/13 07:09:49;;;;;;;0.00;0.00;;;;;;;-144.99;100.00;67352.69;5050748;28;20178;-81
2022/12/13 07:12:14;;;;;;;0.00;0.00;;;;;;;-144.99;100.00;67352.69;5033033;28;20430;-81
2022/12/13 07:14:39;;;;;;;0.07;0.07;;;;;;;-144.99;100.00;67352.69;5050879;28;20183;-81
2022/12/13 07:17:05;;;;;;;0.00;0.00;;;;;;;-144.99;100.00;67352.69;5050867;28;20175;-82
2022/12/13 07:19:30;;;;;;;0.00;0.00;;;;;;;-144.99;100.00;67352.69;5050827;28;20654;-81
2022/12/13 07:21:55;;;;;;;1.90;1.90;;;;;;;-144.99;100.00;67352.69;5032929;28;20183;-82
2022/12/13 07:24:21;;;;;;;0.00;0.00;;;;;;;-144.99;100.00;67352.69;5050920;28;20198;-81
2022/12/13 07:26:46;;;;;;;0.00;0.00;;;;;;;-144.99;100.00;67352.69;5050676;28;20176;-82
2022/12/13 07:29:11;;;;;;;0.50;0.50;;;;;;;-144.99;100.00;67352.69;5050578;28;20505;-81
2022/12/13 07:31:37;;;;;;;0.00;0.00;;;;;;;-144.99;100.00;67352.69;5050775;28;20183;-82
2022/12/13 07:34:02;;;;;;;0.00;0.00;;;;;;;-144.99;100.00;67352.69;5032646;28;20187;-82
2022/12/13 07:36:27;;;;;;;0.20;0.20;;;;;;;-144.99;100.00;67352.69;5050454;28;20396;-81
2022/12/13 07:38:55;;;;;;;2.00;1.90;;;;;;;-144.99;100.00;67352.69;5050445;28;20175;-81
2022/12/13 07:41:22;;;;;;;0.00;0.00;;;;;;;-144.99;100.00;67352.69;5050389;28;20225;-81
2022/12/13 07:43:47;;;;;;;0.00;0.00;;;;;;;-144.99;100.00;67352.69;5050350;28;20951;-81
2022/12/13 07:46:13;;;;;;;0.53;0.53;;;;;;;-144.99;100.00;67352.69;5050289;28;20454;-82
2022/12/13 07:48:38;;;;;;;0.83;0.83;;;;;;;-144.99;100.00;67352.69;5050047;28;20546;-81
2022/12/13 07:51:07;;;;;;;0.23;0.23;;;;;;;-144.99;100.00;67352.69;5050579;28;20175;-81
2022/12/13 07:53:33;;;;;;;4.10;3.50;;;;;;;-144.99;100.00;67352.69;5050007;28;20265;-82
2022/12/13 07:56:05;;;;;;;1.47;1.43;;;;;;;-144.99;100.00;67352.69;5031896;28;20414;-81
2022/12/13 07:58:32;;;;;;;0.17;0.17;;;;;;;-144.99;100.00;67352.69;5032392;28;20424;-82
2022/12/13 08:01:03;;;;;;;0.30;0.30;;;;;;;-144.99;100.00;67352.69;5049835;28;20473;-81
2022/12/13 08:03:28;;;;;;;0.40;0.40;;;;;;;-144.99;100.00;67352.69;5049881;28;20596;-82
2022/12/13 08:06:01;;;;;;;0.00;0.00;;;;;;;-144.99;100.00;67352.69;5050188;28;20525;-82
2022/12/13 08:08:27;;;;;;;0.57;0.57;;;;;;;-144.99;100.00;67352.69;5050351;28;20175;-83
2022/12/13 08:10:52;;;;;;;0.10;0.10;;;;;;;-144.99;100.00;67352.69;5050145;28;20421;-83
2022/12/13 08:13:17;;;;;;;0.67;0.67;;;;;;;-144.99;100.00;67352.69;5050452;28;20677;-83
2022/12/13 08:15:42;;;;;;;3.47;3.27;;;;;;;-144.99;100.00;67352.69;5050607;28;20175;-82
2022/12/13 08:18:08;;;;;;;2.90;2.20;;;;;;;-144.99;100.00;67352.69;5050647;28;20206;-82
2022/12/13 08:20:33;;;;;;;3.87;3.67;;;;;;;-144.99;100.00;67352.69;5055360;28;20206;-81
2022/12/13 08:22:58;;;;;;;4.07;3.77;;;;;;;-144.99;100.00;67352.69;5058164;28;20229;-79
2022/12/13 08:25:24;;;;;;;2.50;2.40;;;;;;;-144.99;100.00;67352.69;5059331;28;20258;-80
2022/12/13 08:27:50;;;;;;;1.47;1.47;;;;;;;-144.99;100.00;67352.69;5054760;28;20288;-82
2022/12/13 08:30:15;;;;;;;3.27;3.07;;;;;;;-144.99;100.00;67352.69;5054805;28;20262;-81
2022/12/13 08:32:41;;;;;;;5.10;4.77;;;;;;;-144.99;100.00;67352.69;5036489;28;20667;-81
2022/12/13 08:35:06;;;;;;;3.53;3.33;;;;;;;-144.99;100.00;67352.69;5054708;28;20203;-81
2022/12/13 08:37:32;;;;;;;1.17;1.17;;;;;;;-144.99;100.00;67352.69;5054877;28;20644;-81
2022/12/13 08:39:57;;;;;;;0.10;0.10;;;;;;;-144.99;100.00;67352.69;5053822;28;20230;-81
2022/12/13 08:42:24;;;;;;;1.70;1.63;;;;;;;-144.99;100.00;67352.69;5053999;28;20179;-78
2022/12/13 08:44:50;;;;;;;1.03;1.03;;;;;;;-144.99;100.00;67352.69;5053615;28;20183;-83
2022/12/13 08:47:17;;;;;;;1.10;1.03;;;;;;;-144.99;100.00;67352.69;5052754;28;20426;-75
2022/12/13 08:49:42;;;;;;;1.13;1.13;;;;;;;-144.99;100.00;67352.69;5052885;28;20777;-80
2022/12/13 08:52:08;;;;;;;9.43;4.23;;;;;;;-144.99;100.00;67352.69;5052776;28;20420;-80
2022/12/13 08:54:33;;;;;;;8.77;0.93;;;;;;;-144.99;100.00;67352.69;5052648;28;20183;-81
2022/12/13 08:56:58;;;;;;;2.13;1.93;;;;;;;-144.99;100.00;67352.69;5052828;28;20171;-80
2022/12/13 08:59:24;;;;;;;0.63;0.63;;;;;;;-144.99;100.00;67352.69;5052441;28;20252;-76
2022/12/13 09:01:50;;;;;;;0.60;0.60;;;;;;;-144.99;100.00;67352.69;5052818;28;20175;-81
2022/12/13 09:04:15;;;;;;;0.20;0.20;;;;;;;-144.99;100.00;67352.69;5052320;28;20532;-82
2022/12/13 09:06:42;;;;;;;0.50;0.50;;;;;;;-144.99;100.00;67352.69;5052570;28;20183;-81
2022/12/13 09:09:07;;;;;;;1.03;1.03;;;;;;;-144.99;100.00;67352.69;5052640;28;20253;-82
2022/12/13 09:11:33;;;;;;;0.00;0.00;;;;;;;-144.99;100.00;67352.69;5052330;28;20933;-81
2022/12/13 09:13:58;;;;;;;1.70;1.70;;;;;;;-144.99;100.00;67352.69;5052547;28;20534;-81
2022/12/13 09:16:27;;;;;;;12.50;0.73;;;;;;;-144.99;100.00;67352.69;5034306;28;20175;-81
2022/12/13 09:18:53;;;;;;;1.30;1.30;;;;;;;-144.99;100.00;67352.69;5052871;28;20171;-81
2022/12/13 09:21:18;;;;;;;0.00;0.00;;;;;;;-144.99;100.00;67352.69;5052197;28;20963;-82
2022/12/13 09:23:43;;;;;;;0.10;0.10;;;;;;;-144.99;100.00;67352.69;5052000;28;20543;-82
2022/12/13 09:26:11;;;;;;;0.00;0.00;;;;;;;-144.99;100.00;67352.69;5035296;28;20184;-82
2022/12/13 09:28:37;;;;;;;1.70;1.70;;;;;;;-144.99;100.00;67352.69;5053421;28;20713;-82
2022/12/13 09:31:17;;;;;;;0.10;0.10;;;;;;;-144.99;100.00;67352.69;5052366;28;20517;-83
2022/12/13 09:33:43;;;;;;;0.00;0.00;;;;;;;-144.99;100.00;67352.69;5052598;28;20183;-82
2022/12/13 09:36:12;;;;;;;1.20;1.17;;;;;;;-144.99;100.00;67352.69;5052916;28;20439;-81
2022/12/13 09:38:37;;;;;;;10.03;4.27;;;;;;;-144.99;100.00;67352.69;5052996;28;20183;-81
2022/12/13 09:41:15;;;;;;;2.53;2.33;;;;;;;-144.99;100.00;67352.69;5053092;28;21003;-81
2022/12/13 09:43:43;;;;;;;1.00;1.00;;;;;;;-144.99;100.00;67352.69;5052732;28;20233;-82
2022/12/13 09:46:19;;;;;;;0.00;0.00;;;;;;;-144.99;100.00;67352.69;5052573;28;20991;-81
2022/12/13 09:48:45;;;;;;;1.10;1.10;;;;;;;-144.99;100.00;67352.69;5053135;28;20429;-81
2022/12/13 09:51:10;;;;;;;1.03;1.03;;;;;;;-144.99;100.00;67352.69;5052889;28;20413;-81
2022/12/13 09:53:36;;;;;;;0.00;0.00;;;;;;;-144.99;100.00;67352.69;5052831;28;20175;-81
2022/12/13 09:56:01;;;;;;;0.27;0.27;;;;;;;-144.99;100.00;67352.69;5052846;28;20167;-82
2022/12/13 09:58:30;;;;;;;0.53;0.53;;;;;;;-144.99;100.00;67352.69;5053013;28;20174;-82
2022/12/13 10:00:57;;;;;;;8.80;2.67;;;;;;;-144.99;100.00;67352.69;5034527;28;20225;-82
2022/12/13 10:03:23;;;;;;;4.47;1.90;;;;;;;-144.99;100.00;67352.69;5052438;28;20858;-82
2022/12/13 10:06:00;;;;;;;0.00;0.00;;;;;;;-144.99;100.00;67352.69;5052657;28;20479;-81
2022/12/13 10:08:40;;;;;;;0.60;0.60;;;;;;;-144.99;100.00;67352.69;5034423;28;20428;-82
2022/12/13 10:11:05;;;;;;;0.20;0.20;;;;;;;-144.99;100.00;67352.69;5052004;28;20610;-82
2022/12/13 10:13:41;;;;;;;0.47;0.47;;;;;;;-144.99;100.00;67352.69;5052134;28;20950;-81
2022/12/13 10:16:33;;;;;;;0.00;0.00;;;;;;;-144.99;100.00;67352.69;5052127;28;20175;-78
2022/12/13 10:19:01;;;;;;;0.00;0.00;;;;;;;-144.99;100.00;67352.69;5052141;28;20433;-83
2022/12/13 10:21:37;;;;;;;0.00;0.00;;;;;;;-144.99;100.00;67352.69;5034314;28;20568;-83
2022/12/13 10:24:13;;;;;;;0.00;0.00;;;;;;;-144.99;100.00;67352.69;5052074;28;20422;-83
2022/12/13 10:26:39;;;;;;;0.27;0.27;;;;;;;-144.99;100.00;67352.69;5052069;28;20444;-78
2022/12/13 10:29:05;;;;;;;0.00;0.00;;;;;;;-144.99;100.00;67352.69;5051541;28;20852;-79
2022/12/13 10:31:41;;;;;;;0.00;0.00;;;;;;;-144.99;100.00;67352.69;5052014;28;20183;-79
2022/12/13 10:34:25;;;;;;;0.00;0.00;;;;;;;-144.99;100.00;67352.69;5051355;28;20417;-79
2022/12/13 10:36:51;;;;;;;0.00;0.00;;;;;;;-144.99;100.00;67352.69;5051496;28;20820;-79
2022/12/13 10:39:36;;;;;;;2.23;2.20;;;;;;;-144.99;100.00;67352.69;5051852;28;20425;-80
2022/12/13 10:42:04;;;;;;;1.60;1.50;;;;;;;-144.99;100.00;67352.69;5050679;28;20253;-79
2022/12/13 10:44:29;;;;;;;2.40;2.30;;;;;;;-144.99;100.00;67352.69;5051284;28;20425;-78
2022/12/13 10:47:03;;;;;;;0.37;0.37;;;;;;;-144.99;100.00;67352.69;5051500;28;20492;-78
2022/12/13 10:49:38;;;;;;;2.33;2.27;;;;;;;-144.99;100.00;67352.69;5051434;28;20182;-79
2022/12/13 10:52:04;;;;;;;0.03;0.03;;;;;;;-144.99;100.00;67352.69;5051424;28;20761;-79
2022/12/13 10:54:34;;;;;;;0.20;0.20;;;;;;;-144.99;100.00;67352.69;5051050;28;20422;-78
2022/12/13 10:57:00;;;;;;;5.30;1.80;;;;;;;-144.99;100.00;67352.69;5051036;28;20476;-79
2022/12/13 10:59:29;;;;;;;2.73;2.57;;;;;;;-144.99;100.00;67352.69;5051338;28;20410;-78
2022/12/13 11:01:55;;;;;;;5.90;3.73;;;;;;;-144.99;100.00;67352.69;5051565;28;20175;-78
2022/12/13 11:04:41;;;;;;;1.33;1.30;;;;;;;-3.97;100.00;100043.28;5087688;28;20551;-79
2022/12/13 11:07:28;;;;;;;1.90;1.90;;;;;;;-3.92;100.00;100047.91;5087744;28;20436;-79
2022/12/13 11:09:54;;;;;;;0.20;0.20;;;;;;;-3.87;100.00;100045.41;5088267;28;20177;-79
2022/12/13 11:12:23;;;;;;;6.90;6.33;;;;;;;-3.77;100.00;100036.84;5088178;28;20421;-78
2022/12/13 11:14:58;;;;;;;2.20;1.40;;;;;;;-3.67;100.00;100037.91;5087693;28;20170;-79
2022/12/13 11:17:27;;;;;;;7.43;4.90;;;;;;;-3.54;100.00;100036.91;5085997;28;20472;-79
2022/12/13 11:19:56;;;;;;;3.10;2.90;;;;;;;-3.56;100.00;100030.97;5087474;28;20954;-80